sensor_id;sensor_type;location;lat;lon;timestamp;P1;durP1;ratioP1;P2;durP2;ratioP2
20802;SDS011;10562;-33.856;151.182;2023-08-17T00:01:49;13.48;;;7.53;;
20802;SDS011;10562;-33.856;151.182;2023-08-17T00:04:20;15.52;;;7.53;;
20802;SDS011;10562;-33.856;151.182;2023-08-17T00:06:50;13.60;;;6.63;;
20802;SDS011;10562;-33.856;151.182;2023-08-17T00:09:21;13.43;;;6.80;;
20802;SDS011;10562;-33.856;151.182;2023-08-17T00:11:54;14.55;;;6.95;;
20802;SDS011;10562;-33.856;151.182;2023-08-17T00:14:25;12.93;;;7.05;;
20802;SDS011;10562;-33.856;151.182;2023-08-17T00:16:56;16.58;;;7.25;;
20802;SDS011;10562;-33.856;151.182;2023-08-17T00:19:29;13.35;;;6.90;;
20802;SDS011;10562;-33.856;151.182;2023-08-17T00:21:59;13.52;;;6.80;;
20802;SDS011;10562;-33.856;151.182;2023-08-17T00:24:30;14.43;;;6.80;;
20802;SDS011;10562;-33.856;151.182;2023-08-17T00:27:03;15.48;;;6.70;;
20802;SDS011;10562;-33.856;151.182;2023-08-17T00:29:34;12.98;;;6.70;;
20802;SDS011;10562;-33.856;151.182;2023-08-17T00:32:05;14.70;;;6.82;;
20802;SDS011;10562;-33.856;151.182;2023-08-17T00:34:36;14.63;;;6.65;;
20802;SDS011;10562;-33.856;151.182;2023-08-17T00:37:07;11.88;;;6.32;;
20802;SDS011;10562;-33.856;151.182;2023-08-17T00:39:37;18.83;;;6.30;;
20802;SDS011;10562;-33.856;151.182;2023-08-17T00:42:10;12.05;;;6.10;;
20802;SDS011;10562;-33.856;151.182;2023-08-17T00:44:41;12.35;;;6.07;;
20802;SDS011;10562;-33.856;151.182;2023-08-17T00:47:12;11.50;;;6.10;;
20802;SDS011;10562;-33.856;151.182;2023-08-17T00:49:43;9.55;;;5.60;;
20802;SDS011;10562;-33.856;151.182;2023-08-17T00:52:14;12.32;;;5.63;;
20802;SDS011;10562;-33.856;151.182;2023-08-17T00:54:45;9.40;;;5.10;;
20802;SDS011;10562;-33.856;151.182;2023-08-17T00:57:18;10.45;;;5.15;;
20802;SDS011;10562;-33.856;151.182;2023-08-17T00:59:50;12.50;;;5.10;;
20802;SDS011;10562;-33.856;151.182;2023-08-17T01:02:21;11.45;;;5.07;;
20802;SDS011;10562;-33.856;151.182;2023-08-17T01:04:52;11.60;;;5.13;;
20802;SDS011;10562;-33.856;151.182;2023-08-17T01:07:22;9.02;;;4.88;;
20802;SDS011;10562;-33.856;151.182;2023-08-17T01:09:54;8.52;;;4.45;;
20802;SDS011;10562;-33.856;151.182;2023-08-17T01:12:30;7.30;;;4.25;;
20802;SDS011;10562;-33.856;151.182;2023-08-17T01:15:07;12.02;;;4.40;;
20802;SDS011;10562;-33.856;151.182;2023-08-17T01:17:43;8.93;;;4.28;;
20802;SDS011;10562;-33.856;151.182;2023-08-17T01:20:17;10.57;;;4.35;;
20802;SDS011;10562;-33.856;151.182;2023-08-17T01:22:49;9.02;;;4.20;;
20802;SDS011;10562;-33.856;151.182;2023-08-17T01:25:25;10.43;;;4.20;;
20802;SDS011;10562;-33.856;151.182;2023-08-17T01:27:55;13.07;;;4.25;;
20802;SDS011;10562;-33.856;151.182;2023-08-17T01:30:26;7.50;;;3.92;;
20802;SDS011;10562;-33.856;151.182;2023-08-17T01:33:01;6.40;;;3.60;;
20802;SDS011;10562;-33.856;151.182;2023-08-17T01:35:38;7.20;;;3.70;;
20802;SDS011;10562;-33.856;151.182;2023-08-17T01:38:14;6.90;;;3.63;;
20802;SDS011;10562;-33.856;151.182;2023-08-17T01:40:50;5.22;;;3.40;;
20802;SDS011;10562;-33.856;151.182;2023-08-17T01:43:22;8.60;;;3.67;;
20802;SDS011;10562;-33.856;151.182;2023-08-17T01:45:54;6.03;;;3.22;;
20802;SDS011;10562;-33.856;151.182;2023-08-17T01:48:25;12.13;;;3.72;;
20802;SDS011;10562;-33.856;151.182;2023-08-17T01:50:56;12.10;;;3.80;;
20802;SDS011;10562;-33.856;151.182;2023-08-17T01:53:27;8.32;;;3.47;;
20802;SDS011;10562;-33.856;151.182;2023-08-17T01:55:59;21.73;;;11.68;;
20802;SDS011;10562;-33.856;151.182;2023-08-17T01:58:30;6.43;;;3.20;;
20802;SDS011;10562;-33.856;151.182;2023-08-17T02:01:01;5.13;;;2.50;;
20802;SDS011;10562;-33.856;151.182;2023-08-17T02:03:32;4.38;;;2.10;;
20802;SDS011;10562;-33.856;151.182;2023-08-17T02:06:03;4.43;;;2.00;;
20802;SDS011;10562;-33.856;151.182;2023-08-17T02:08:34;4.35;;;2.13;;
20802;SDS011;10562;-33.856;151.182;2023-08-17T02:11:07;4.22;;;2.20;;
20802;SDS011;10562;-33.856;151.182;2023-08-17T02:13:37;3.00;;;2.00;;
20802;SDS011;10562;-33.856;151.182;2023-08-17T02:16:08;6.28;;;1.83;;
20802;SDS011;10562;-33.856;151.182;2023-08-17T02:18:39;1.95;;;1.33;;
20802;SDS011;10562;-33.856;151.182;2023-08-17T02:21:10;2.53;;;1.65;;
20802;SDS011;10562;-33.856;151.182;2023-08-17T02:23:40;3.25;;;1.48;;
20802;SDS011;10562;-33.856;151.182;2023-08-17T02:26:13;5.05;;;1.60;;
20802;SDS011;10562;-33.856;151.182;2023-08-17T02:28:44;4.65;;;1.60;;
20802;SDS011;10562;-33.856;151.182;2023-08-17T02:31:15;3.40;;;1.90;;
20802;SDS011;10562;-33.856;151.182;2023-08-17T02:33:46;4.00;;;1.70;;
20802;SDS011;10562;-33.856;151.182;2023-08-17T02:36:16;4.20;;;1.50;;
20802;SDS011;10562;-33.856;151.182;2023-08-17T02:38:47;3.72;;;1.70;;
20802;SDS011;10562;-33.856;151.182;2023-08-17T02:41:20;8.70;;;2.10;;
20802;SDS011;10562;-33.856;151.182;2023-08-17T02:43:50;3.35;;;1.73;;
20802;SDS011;10562;-33.856;151.182;2023-08-17T02:46:21;2.47;;;1.60;;
20802;SDS011;10562;-33.856;151.182;2023-08-17T02:48:52;3.38;;;1.83;;
20802;SDS011;10562;-33.856;151.182;2023-08-17T02:51:23;3.78;;;1.90;;
20802;SDS011;10562;-33.856;151.182;2023-08-17T02:53:54;5.78;;;1.50;;
20802;SDS011;10562;-33.856;151.182;2023-08-17T02:56:26;4.25;;;2.00;;
20802;SDS011;10562;-33.856;151.182;2023-08-17T02:58:57;4.05;;;1.80;;
20802;SDS011;10562;-33.856;151.182;2023-08-17T03:01:28;8.25;;;2.42;;
20802;SDS011;10562;-33.856;151.182;2023-08-17T03:03:59;6.13;;;2.20;;
20802;SDS011;10562;-33.856;151.182;2023-08-17T03:06:30;5.03;;;2.10;;
20802;SDS011;10562;-33.856;151.182;2023-08-17T03:09:00;2.97;;;1.83;;
20802;SDS011;10562;-33.856;151.182;2023-08-17T03:11:33;3.45;;;1.85;;
20802;SDS011;10562;-33.856;151.182;2023-08-17T03:14:04;5.05;;;1.80;;
20802;SDS011;10562;-33.856;151.182;2023-08-17T03:16:36;5.38;;;1.80;;
20802;SDS011;10562;-33.856;151.182;2023-08-17T03:19:07;3.10;;;1.80;;
20802;SDS011;10562;-33.856;151.182;2023-08-17T03:21:38;3.45;;;1.80;;
20802;SDS011;10562;-33.856;151.182;2023-08-17T03:24:09;4.90;;;2.00;;
20802;SDS011;10562;-33.856;151.182;2023-08-17T03:26:42;4.13;;;1.92;;
20802;SDS011;10562;-33.856;151.182;2023-08-17T03:29:12;4.20;;;1.85;;
20802;SDS011;10562;-33.856;151.182;2023-08-17T03:31:43;6.35;;;2.05;;
20802;SDS011;10562;-33.856;151.182;2023-08-17T03:34:15;4.55;;;1.60;;
20802;SDS011;10562;-33.856;151.182;2023-08-17T03:36:46;3.83;;;2.08;;
20802;SDS011;10562;-33.856;151.182;2023-08-17T03:39:17;3.63;;;1.60;;
20802;SDS011;10562;-33.856;151.182;2023-08-17T03:41:50;3.75;;;1.80;;
20802;SDS011;10562;-33.856;151.182;2023-08-17T03:44:20;3.55;;;1.75;;
20802;SDS011;10562;-33.856;151.182;2023-08-17T03:46:51;3.47;;;1.48;;
20802;SDS011;10562;-33.856;151.182;2023-08-17T03:49:22;6.07;;;1.58;;
20802;SDS011;10562;-33.856;151.182;2023-08-17T03:51:53;3.85;;;1.90;;
20802;SDS011;10562;-33.856;151.182;2023-08-17T03:54:23;2.15;;;1.30;;
20802;SDS011;10562;-33.856;151.182;2023-08-17T03:56:56;2.88;;;1.50;;
20802;SDS011;10562;-33.856;151.182;2023-08-17T03:59:27;2.60;;;1.40;;
20802;SDS011;10562;-33.856;151.182;2023-08-17T04:01:58;3.83;;;1.40;;
20802;SDS011;10562;-33.856;151.182;2023-08-17T04:04:29;3.72;;;1.60;;
20802;SDS011;10562;-33.856;151.182;2023-08-17T04:06:59;6.30;;;1.70;;
20802;SDS011;10562;-33.856;151.182;2023-08-17T04:09:30;3.00;;;1.30;;
20802;SDS011;10562;-33.856;151.182;2023-08-17T04:12:04;4.82;;;1.50;;
20802;SDS011;10562;-33.856;151.182;2023-08-17T04:14:35;4.38;;;1.30;;
20802;SDS011;10562;-33.856;151.182;2023-08-17T04:17:06;3.25;;;1.45;;
20802;SDS011;10562;-33.856;151.182;2023-08-17T04:19:36;1.95;;;1.25;;
20802;SDS011;10562;-33.856;151.182;2023-08-17T04:22:10;3.90;;;1.20;;
20802;SDS011;10562;-33.856;151.182;2023-08-17T04:24:41;1.90;;;1.25;;
20802;SDS011;10562;-33.856;151.182;2023-08-17T04:27:14;1.58;;;1.20;;
20802;SDS011;10562;-33.856;151.182;2023-08-17T04:29:44;2.20;;;1.10;;
20802;SDS011;10562;-33.856;151.182;2023-08-17T04:32:15;4.00;;;1.20;;
20802;SDS011;10562;-33.856;151.182;2023-08-17T04:34:46;2.40;;;1.17;;
20802;SDS011;10562;-33.856;151.182;2023-08-17T04:37:17;8.57;;;1.45;;
20802;SDS011;10562;-33.856;151.182;2023-08-17T04:39:48;5.68;;;1.70;;
20802;SDS011;10562;-33.856;151.182;2023-08-17T04:42:20;3.15;;;1.60;;
20802;SDS011;10562;-33.856;151.182;2023-08-17T04:44:51;3.38;;;1.60;;
20802;SDS011;10562;-33.856;151.182;2023-08-17T04:47:22;5.53;;;1.70;;
20802;SDS011;10562;-33.856;151.182;2023-08-17T04:49:53;3.15;;;1.63;;
20802;SDS011;10562;-33.856;151.182;2023-08-17T04:52:23;4.65;;;1.55;;
20802;SDS011;10562;-33.856;151.182;2023-08-17T04:54:54;6.55;;;1.90;;
20802;SDS011;10562;-33.856;151.182;2023-08-17T04:57:27;6.80;;;1.90;;
20802;SDS011;10562;-33.856;151.182;2023-08-17T04:59:58;7.63;;;1.80;;
20802;SDS011;10562;-33.856;151.182;2023-08-17T05:02:29;7.32;;;1.92;;
20802;SDS011;10562;-33.856;151.182;2023-08-17T05:05:02;6.00;;;1.75;;
20802;SDS011;10562;-33.856;151.182;2023-08-17T05:07:33;4.70;;;1.48;;
20802;SDS011;10562;-33.856;151.182;2023-08-17T05:10:04;5.80;;;1.77;;
20802;SDS011;10562;-33.856;151.182;2023-08-17T05:12:38;4.78;;;1.70;;
20802;SDS011;10562;-33.856;151.182;2023-08-17T05:15:09;8.75;;;1.90;;
20802;SDS011;10562;-33.856;151.182;2023-08-17T05:17:40;74.47;;;8.98;;
20802;SDS011;10562;-33.856;151.182;2023-08-17T05:20:11;3.92;;;1.50;;
20802;SDS011;10562;-33.856;151.182;2023-08-17T05:22:42;2.35;;;1.40;;
20802;SDS011;10562;-33.856;151.182;2023-08-17T05:25:13;4.90;;;1.50;;
20802;SDS011;10562;-33.856;151.182;2023-08-17T05:27:46;4.38;;;1.40;;
20802;SDS011;10562;-33.856;151.182;2023-08-17T05:30:17;6.90;;;1.67;;
20802;SDS011;10562;-33.856;151.182;2023-08-17T05:32:48;2.25;;;1.42;;
20802;SDS011;10562;-33.856;151.182;2023-08-17T05:35:19;3.53;;;1.50;;
20802;SDS011;10562;-33.856;151.182;2023-08-17T05:37:49;7.53;;;1.65;;
20802;SDS011;10562;-33.856;151.182;2023-08-17T05:40:20;38.90;;;4.82;;
20802;SDS011;10562;-33.856;151.182;2023-08-17T05:42:53;6.30;;;1.73;;
20802;SDS011;10562;-33.856;151.182;2023-08-17T05:45:24;3.03;;;1.42;;
20802;SDS011;10562;-33.856;151.182;2023-08-17T05:47:54;3.38;;;1.50;;
20802;SDS011;10562;-33.856;151.182;2023-08-17T05:50:25;3.47;;;1.63;;
20802;SDS011;10562;-33.856;151.182;2023-08-17T05:52:56;6.18;;;1.65;;
20802;SDS011;10562;-33.856;151.182;2023-08-17T05:55:27;5.03;;;1.60;;
20802;SDS011;10562;-33.856;151.182;2023-08-17T05:58:00;3.97;;;1.60;;
20802;SDS011;10562;-33.856;151.182;2023-08-17T06:00:31;4.35;;;1.50;;
20802;SDS011;10562;-33.856;151.182;2023-08-17T06:03:02;3.20;;;1.30;;
20802;SDS011;10562;-33.856;151.182;2023-08-17T06:05:33;9.23;;;2.15;;
20802;SDS011;10562;-33.856;151.182;2023-08-17T06:08:04;5.55;;;1.48;;
20802;SDS011;10562;-33.856;151.182;2023-08-17T06:10:35;3.55;;;1.40;;
20802;SDS011;10562;-33.856;151.182;2023-08-17T06:13:08;4.57;;;1.25;;
20802;SDS011;10562;-33.856;151.182;2023-08-17T06:15:39;2.10;;;1.27;;
20802;SDS011;10562;-33.856;151.182;2023-08-17T06:18:10;2.85;;;1.38;;
20802;SDS011;10562;-33.856;151.182;2023-08-17T06:20:41;4.85;;;1.52;;
20802;SDS011;10562;-33.856;151.182;2023-08-17T06:23:12;4.18;;;1.23;;
20802;SDS011;10562;-33.856;151.182;2023-08-17T06:25:43;4.60;;;1.50;;
20802;SDS011;10562;-33.856;151.182;2023-08-17T06:28:16;5.60;;;1.40;;
20802;SDS011;10562;-33.856;151.182;2023-08-17T06:30:47;6.50;;;1.60;;
20802;SDS011;10562;-33.856;151.182;2023-08-17T06:33:21;2.40;;;1.20;;
20802;SDS011;10562;-33.856;151.182;2023-08-17T06:35:55;4.50;;;1.55;;
20802;SDS011;10562;-33.856;151.182;2023-08-17T06:38:31;3.30;;;1.25;;
20802;SDS011;10562;-33.856;151.182;2023-08-17T06:41:16;2.60;;;1.20;;
20802;SDS011;10562;-33.856;151.182;2023-08-17T06:43:48;5.78;;;1.33;;
20802;SDS011;10562;-33.856;151.182;2023-08-17T06:46:19;6.68;;;1.65;;
20802;SDS011;10562;-33.856;151.182;2023-08-17T06:48:50;6.15;;;1.25;;
20802;SDS011;10562;-33.856;151.182;2023-08-17T06:51:21;6.55;;;1.27;;
20802;SDS011;10562;-33.856;151.182;2023-08-17T06:53:52;2.63;;;1.13;;
20802;SDS011;10562;-33.856;151.182;2023-08-17T06:56:22;4.88;;;1.27;;
20802;SDS011;10562;-33.856;151.182;2023-08-17T06:58:55;3.80;;;1.40;;
20802;SDS011;10562;-33.856;151.182;2023-08-17T07:01:26;7.78;;;1.33;;
20802;SDS011;10562;-33.856;151.182;2023-08-17T07:03:57;19.25;;;2.47;;
20802;SDS011;10562;-33.856;151.182;2023-08-17T07:06:28;12.02;;;1.58;;
20802;SDS011;10562;-33.856;151.182;2023-08-17T07:08:59;6.25;;;1.35;;
20802;SDS011;10562;-33.856;151.182;2023-08-17T07:11:31;3.83;;;1.40;;
20802;SDS011;10562;-33.856;151.182;2023-08-17T07:14:03;4.43;;;1.40;;
20802;SDS011;10562;-33.856;151.182;2023-08-17T07:16:35;3.50;;;1.10;;
20802;SDS011;10562;-33.856;151.182;2023-08-17T07:19:06;2.88;;;1.23;;
20802;SDS011;10562;-33.856;151.182;2023-08-17T07:21:37;5.55;;;1.33;;
20802;SDS011;10562;-33.856;151.182;2023-08-17T07:24:14;3.50;;;1.25;;
20802;SDS011;10562;-33.856;151.182;2023-08-17T07:26:45;3.05;;;1.13;;
20802;SDS011;10562;-33.856;151.182;2023-08-17T07:29:18;3.83;;;1.40;;
20802;SDS011;10562;-33.856;151.182;2023-08-17T07:31:49;3.03;;;1.33;;
20802;SDS011;10562;-33.856;151.182;2023-08-17T07:34:20;1.63;;;1.10;;
20802;SDS011;10562;-33.856;151.182;2023-08-17T07:36:51;3.50;;;1.52;;
20802;SDS011;10562;-33.856;151.182;2023-08-17T07:39:23;2.25;;;1.48;;
20802;SDS011;10562;-33.856;151.182;2023-08-17T07:41:54;2.78;;;1.60;;
20802;SDS011;10562;-33.856;151.182;2023-08-17T07:44:27;2.45;;;1.40;;
20802;SDS011;10562;-33.856;151.182;2023-08-17T07:46:59;3.53;;;1.30;;
20802;SDS011;10562;-33.856;151.182;2023-08-17T07:49:30;3.88;;;1.25;;
20802;SDS011;10562;-33.856;151.182;2023-08-17T07:52:00;4.80;;;1.40;;
20802;SDS011;10562;-33.856;151.182;2023-08-17T07:54:31;2.72;;;1.52;;
20802;SDS011;10562;-33.856;151.182;2023-08-17T07:57:02;1.95;;;1.20;;
20802;SDS011;10562;-33.856;151.182;2023-08-17T07:59:35;2.90;;;1.70;;
20802;SDS011;10562;-33.856;151.182;2023-08-17T08:02:06;3.20;;;1.40;;
20802;SDS011;10562;-33.856;151.182;2023-08-17T08:04:36;3.63;;;1.40;;
20802;SDS011;10562;-33.856;151.182;2023-08-17T08:07:07;3.03;;;1.30;;
20802;SDS011;10562;-33.856;151.182;2023-08-17T08:09:38;3.75;;;1.70;;
20802;SDS011;10562;-33.856;151.182;2023-08-17T08:12:09;4.75;;;1.73;;
20802;SDS011;10562;-33.856;151.182;2023-08-17T08:14:42;4.40;;;2.17;;
20802;SDS011;10562;-33.856;151.182;2023-08-17T08:17:13;11.60;;;2.88;;
20802;SDS011;10562;-33.856;151.182;2023-08-17T08:19:43;6.70;;;3.08;;
20802;SDS011;10562;-33.856;151.182;2023-08-17T08:22:14;12.27;;;4.68;;
20802;SDS011;10562;-33.856;151.182;2023-08-17T08:24:45;9.02;;;3.10;;
20802;SDS011;10562;-33.856;151.182;2023-08-17T08:27:15;7.78;;;3.03;;
20802;SDS011;10562;-33.856;151.182;2023-08-17T08:29:48;4.28;;;2.40;;
20802;SDS011;10562;-33.856;151.182;2023-08-17T08:32:19;6.50;;;2.33;;
20802;SDS011;10562;-33.856;151.182;2023-08-17T08:34:50;7.25;;;3.03;;
20802;SDS011;10562;-33.856;151.182;2023-08-17T08:37:21;4.40;;;2.08;;
20802;SDS011;10562;-33.856;151.182;2023-08-17T08:39:51;4.03;;;2.15;;
20802;SDS011;10562;-33.856;151.182;2023-08-17T08:42:24;7.20;;;2.45;;
20802;SDS011;10562;-33.856;151.182;2023-08-17T08:44:57;4.38;;;2.40;;
20802;SDS011;10562;-33.856;151.182;2023-08-17T08:47:28;4.78;;;2.03;;
20802;SDS011;10562;-33.856;151.182;2023-08-17T08:50:00;4.25;;;1.90;;
20802;SDS011;10562;-33.856;151.182;2023-08-17T08:52:32;4.88;;;1.85;;
20802;SDS011;10562;-33.856;151.182;2023-08-17T08:55:07;4.15;;;2.00;;
20802;SDS011;10562;-33.856;151.182;2023-08-17T08:57:41;2.58;;;1.70;;
20802;SDS011;10562;-33.856;151.182;2023-08-17T09:00:14;6.75;;;2.30;;
20802;SDS011;10562;-33.856;151.182;2023-08-17T09:02:45;9.45;;;2.00;;
20802;SDS011;10562;-33.856;151.182;2023-08-17T09:05:17;7.10;;;2.20;;
20802;SDS011;10562;-33.856;151.182;2023-08-17T09:07:48;6.00;;;2.70;;
20802;SDS011;10562;-33.856;151.182;2023-08-17T09:10:20;6.50;;;2.50;;
20802;SDS011;10562;-33.856;151.182;2023-08-17T09:12:51;8.60;;;3.50;;
20802;SDS011;10562;-33.856;151.182;2023-08-17T09:15:24;7.20;;;3.30;;
20802;SDS011;10562;-33.856;151.182;2023-08-17T09:17:55;5.65;;;2.50;;
20802;SDS011;10562;-33.856;151.182;2023-08-17T09:20:38;8.82;;;2.17;;
20802;SDS011;10562;-33.856;151.182;2023-08-17T09:23:11;5.45;;;2.28;;
20802;SDS011;10562;-33.856;151.182;2023-08-17T09:25:42;4.07;;;1.88;;
20802;SDS011;10562;-33.856;151.182;2023-08-17T09:28:14;3.50;;;2.17;;
20802;SDS011;10562;-33.856;151.182;2023-08-17T09:30:51;5.00;;;2.10;;
20802;SDS011;10562;-33.856;151.182;2023-08-17T09:33:23;4.05;;;2.20;;
20802;SDS011;10562;-33.856;151.182;2023-08-17T09:35:55;7.35;;;2.60;;
20802;SDS011;10562;-33.856;151.182;2023-08-17T09:38:26;5.25;;;2.75;;
20802;SDS011;10562;-33.856;151.182;2023-08-17T09:40:57;3.80;;;1.90;;
20802;SDS011;10562;-33.856;151.182;2023-08-17T09:43:28;5.10;;;2.13;;
20802;SDS011;10562;-33.856;151.182;2023-08-17T09:46:02;4.70;;;2.28;;
20802;SDS011;10562;-33.856;151.182;2023-08-17T09:48:33;6.57;;;2.92;;
20802;SDS011;10562;-33.856;151.182;2023-08-17T09:51:05;4.93;;;2.05;;
20802;SDS011;10562;-33.856;151.182;2023-08-17T09:53:36;6.80;;;2.10;;
20802;SDS011;10562;-33.856;151.182;2023-08-17T09:56:07;6.55;;;2.17;;
20802;SDS011;10562;-33.856;151.182;2023-08-17T09:58:39;5.50;;;2.10;;
20802;SDS011;10562;-33.856;151.182;2023-08-17T10:01:12;5.47;;;2.10;;
20802;SDS011;10562;-33.856;151.182;2023-08-17T10:03:43;4.95;;;2.03;;
20802;SDS011;10562;-33.856;151.182;2023-08-17T10:06:17;5.15;;;2.20;;
20802;SDS011;10562;-33.856;151.182;2023-08-17T10:08:54;6.22;;;2.10;;
20802;SDS011;10562;-33.856;151.182;2023-08-17T10:11:27;6.28;;;2.10;;
20802;SDS011;10562;-33.856;151.182;2023-08-17T10:14:02;5.05;;;2.05;;
20802;SDS011;10562;-33.856;151.182;2023-08-17T10:16:43;5.93;;;2.30;;
20802;SDS011;10562;-33.856;151.182;2023-08-17T10:19:18;7.70;;;2.00;;
20802;SDS011;10562;-33.856;151.182;2023-08-17T10:21:54;3.25;;;1.80;;
20802;SDS011;10562;-33.856;151.182;2023-08-17T10:24:32;8.07;;;2.20;;
20802;SDS011;10562;-33.856;151.182;2023-08-17T10:27:04;3.95;;;1.98;;
20802;SDS011;10562;-33.856;151.182;2023-08-17T10:29:36;5.25;;;2.08;;
20802;SDS011;10562;-33.856;151.182;2023-08-17T10:32:11;5.15;;;2.20;;
20802;SDS011;10562;-33.856;151.182;2023-08-17T10:34:43;6.38;;;2.45;;
20802;SDS011;10562;-33.856;151.182;2023-08-17T10:37:14;4.60;;;2.50;;
20802;SDS011;10562;-33.856;151.182;2023-08-17T10:39:46;8.82;;;2.60;;
20802;SDS011;10562;-33.856;151.182;2023-08-17T10:42:30;4.07;;;1.85;;
20802;SDS011;10562;-33.856;151.182;2023-08-17T10:45:01;2.88;;;1.83;;
20802;SDS011;10562;-33.856;151.182;2023-08-17T10:48:01;4.13;;;2.17;;
20802;SDS011;10562;-33.856;151.182;2023-08-17T10:51:02;6.53;;;2.10;;
20802;SDS011;10562;-33.856;151.182;2023-08-17T10:53:36;4.93;;;2.30;;
20802;SDS011;10562;-33.856;151.182;2023-08-17T10:56:11;4.03;;;2.47;;
20802;SDS011;10562;-33.856;151.182;2023-08-17T10:58:43;5.45;;;2.20;;
20802;SDS011;10562;-33.856;151.182;2023-08-17T11:01:14;7.28;;;2.70;;
20802;SDS011;10562;-33.856;151.182;2023-08-17T11:04:17;4.90;;;2.00;;
20802;SDS011;10562;-33.856;151.182;2023-08-17T11:09:31;3.92;;;2.25;;
20802;SDS011;10562;-33.856;151.182;2023-08-17T11:12:04;6.47;;;2.40;;
20802;SDS011;10562;-33.856;151.182;2023-08-17T11:14:57;5.15;;;2.42;;
20802;SDS011;10562;-33.856;151.182;2023-08-17T11:17:27;9.73;;;2.50;;
20802;SDS011;10562;-33.856;151.182;2023-08-17T11:20:00;5.00;;;3.20;;
20802;SDS011;10562;-33.856;151.182;2023-08-17T11:22:32;5.88;;;2.97;;
20802;SDS011;10562;-33.856;151.182;2023-08-17T11:25:03;5.85;;;2.65;;
20802;SDS011;10562;-33.856;151.182;2023-08-17T11:27:35;6.28;;;2.75;;
20802;SDS011;10562;-33.856;151.182;2023-08-17T11:30:06;7.38;;;3.13;;
20802;SDS011;10562;-33.856;151.182;2023-08-17T11:32:37;7.05;;;2.88;;
20802;SDS011;10562;-33.856;151.182;2023-08-17T11:35:10;7.03;;;3.25;;
20802;SDS011;10562;-33.856;151.182;2023-08-17T11:37:41;7.78;;;4.20;;
20802;SDS011;10562;-33.856;151.182;2023-08-17T11:40:12;10.43;;;4.43;;
20802;SDS011;10562;-33.856;151.182;2023-08-17T11:42:43;9.00;;;3.75;;
20802;SDS011;10562;-33.856;151.182;2023-08-17T11:45:14;7.07;;;3.97;;
20802;SDS011;10562;-33.856;151.182;2023-08-17T11:47:46;9.38;;;4.22;;
20802;SDS011;10562;-33.856;151.182;2023-08-17T11:50:19;10.63;;;3.80;;
20802;SDS011;10562;-33.856;151.182;2023-08-17T11:52:50;7.88;;;4.10;;
20802;SDS011;10562;-33.856;151.182;2023-08-17T11:55:21;9.02;;;3.97;;
20802;SDS011;10562;-33.856;151.182;2023-08-17T11:57:51;7.60;;;3.80;;
20802;SDS011;10562;-33.856;151.182;2023-08-17T12:00:23;7.60;;;4.10;;
20802;SDS011;10562;-33.856;151.182;2023-08-17T12:02:54;8.38;;;3.33;;
20802;SDS011;10562;-33.856;151.182;2023-08-17T12:05:26;8.30;;;3.50;;
20802;SDS011;10562;-33.856;151.182;2023-08-17T12:07:59;7.65;;;3.05;;
20802;SDS011;10562;-33.856;151.182;2023-08-17T12:10:31;5.63;;;3.20;;
20802;SDS011;10562;-33.856;151.182;2023-08-17T12:13:02;6.72;;;3.55;;
20802;SDS011;10562;-33.856;151.182;2023-08-17T12:15:33;5.88;;;3.20;;
20802;SDS011;10562;-33.856;151.182;2023-08-17T12:18:04;6.72;;;3.40;;
20802;SDS011;10562;-33.856;151.182;2023-08-17T12:20:36;7.95;;;3.50;;
20802;SDS011;10562;-33.856;151.182;2023-08-17T12:23:09;8.35;;;3.63;;
20802;SDS011;10562;-33.856;151.182;2023-08-17T12:25:39;9.90;;;3.50;;
20802;SDS011;10562;-33.856;151.182;2023-08-17T12:28:12;7.72;;;3.60;;
20802;SDS011;10562;-33.856;151.182;2023-08-17T12:30:43;8.27;;;3.78;;
20802;SDS011;10562;-33.856;151.182;2023-08-17T12:33:14;7.72;;;3.63;;
20802;SDS011;10562;-33.856;151.182;2023-08-17T12:35:47;6.90;;;3.78;;
20802;SDS011;10562;-33.856;151.182;2023-08-17T12:38:17;9.32;;;4.15;;
20802;SDS011;10562;-33.856;151.182;2023-08-17T12:40:48;6.55;;;3.70;;
20802;SDS011;10562;-33.856;151.182;2023-08-17T12:43:19;7.78;;;3.92;;
20802;SDS011;10562;-33.856;151.182;2023-08-17T12:45:50;7.68;;;4.07;;
20802;SDS011;10562;-33.856;151.182;2023-08-17T12:48:21;8.23;;;4.35;;
20802;SDS011;10562;-33.856;151.182;2023-08-17T12:50:54;9.32;;;4.30;;
20802;SDS011;10562;-33.856;151.182;2023-08-17T12:53:24;9.43;;;4.15;;
20802;SDS011;10562;-33.856;151.182;2023-08-17T12:55:55;9.93;;;4.18;;
20802;SDS011;10562;-33.856;151.182;2023-08-17T12:58:26;9.18;;;4.70;;
20802;SDS011;10562;-33.856;151.182;2023-08-17T13:00:57;10.27;;;4.47;;
20802;SDS011;10562;-33.856;151.182;2023-08-17T13:03:28;11.73;;;5.00;;
20802;SDS011;10562;-33.856;151.182;2023-08-17T13:06:00;10.32;;;4.80;;
20802;SDS011;10562;-33.856;151.182;2023-08-17T13:08:31;11.00;;;4.85;;
20802;SDS011;10562;-33.856;151.182;2023-08-17T13:11:02;9.07;;;5.13;;
20802;SDS011;10562;-33.856;151.182;2023-08-17T13:13:33;9.52;;;4.95;;
20802;SDS011;10562;-33.856;151.182;2023-08-17T13:16:04;14.27;;;6.30;;
20802;SDS011;10562;-33.856;151.182;2023-08-17T13:18:34;13.25;;;6.15;;
20802;SDS011;10562;-33.856;151.182;2023-08-17T13:21:07;16.10;;;6.13;;
20802;SDS011;10562;-33.856;151.182;2023-08-17T13:23:41;16.15;;;6.18;;
20802;SDS011;10562;-33.856;151.182;2023-08-17T13:26:12;16.30;;;6.55;;
20802;SDS011;10562;-33.856;151.182;2023-08-17T13:28:43;13.02;;;6.15;;
20802;SDS011;10562;-33.856;151.182;2023-08-17T13:31:14;17.20;;;6.47;;
20802;SDS011;10562;-33.856;151.182;2023-08-17T13:33:45;12.25;;;6.50;;
20802;SDS011;10562;-33.856;151.182;2023-08-17T13:36:17;10.90;;;6.40;;
20802;SDS011;10562;-33.856;151.182;2023-08-17T13:38:48;14.68;;;6.95;;
20802;SDS011;10562;-33.856;151.182;2023-08-17T13:41:19;14.32;;;6.80;;
20802;SDS011;10562;-33.856;151.182;2023-08-17T13:43:51;13.25;;;6.65;;
20802;SDS011;10562;-33.856;151.182;2023-08-17T13:46:23;14.30;;;6.82;;
20802;SDS011;10562;-33.856;151.182;2023-08-17T13:48:54;18.13;;;7.00;;
20802;SDS011;10562;-33.856;151.182;2023-08-17T13:51:27;14.70;;;6.57;;
20802;SDS011;10562;-33.856;151.182;2023-08-17T13:53:57;15.27;;;6.85;;
20802;SDS011;10562;-33.856;151.182;2023-08-17T13:56:28;14.77;;;6.57;;
20802;SDS011;10562;-33.856;151.182;2023-08-17T13:58:59;14.18;;;6.60;;
20802;SDS011;10562;-33.856;151.182;2023-08-17T14:01:30;13.65;;;6.97;;
20802;SDS011;10562;-33.856;151.182;2023-08-17T14:04:00;15.68;;;7.18;;
20802;SDS011;10562;-33.856;151.182;2023-08-17T14:06:34;14.60;;;7.22;;
20802;SDS011;10562;-33.856;151.182;2023-08-17T14:09:05;13.93;;;7.30;;
20802;SDS011;10562;-33.856;151.182;2023-08-17T14:11:36;14.35;;;7.05;;
20802;SDS011;10562;-33.856;151.182;2023-08-17T14:14:07;11.38;;;6.57;;
20802;SDS011;10562;-33.856;151.182;2023-08-17T14:16:37;13.02;;;6.32;;
20802;SDS011;10562;-33.856;151.182;2023-08-17T14:19:08;12.95;;;6.72;;
20802;SDS011;10562;-33.856;151.182;2023-08-17T14:21:41;17.42;;;6.97;;
20802;SDS011;10562;-33.856;151.182;2023-08-17T14:24:12;16.52;;;6.70;;
20802;SDS011;10562;-33.856;151.182;2023-08-17T14:26:42;12.52;;;6.65;;
20802;SDS011;10562;-33.856;151.182;2023-08-17T14:29:13;13.25;;;6.43;;
20802;SDS011;10562;-33.856;151.182;2023-08-17T14:31:44;12.20;;;6.53;;
20802;SDS011;10562;-33.856;151.182;2023-08-17T14:34:15;14.13;;;7.00;;
20802;SDS011;10562;-33.856;151.182;2023-08-17T14:36:47;13.32;;;6.95;;